createdAt,value
2022-09-12T06:22:39.398Z,3.00
2022-09-12T06:25:47.045Z,2.40
2022-09-12T06:28:49.081Z,3.03
2022-09-12T06:31:50.599Z,2.35
2022-09-12T06:34:52.060Z,2.50
2022-09-12T06:37:53.503Z,2.72
2022-09-12T06:40:54.991Z,2.38
2022-09-12T06:43:57.424Z,2.40
2022-09-12T06:46:59.173Z,2.40
2022-09-12T06:50:00.699Z,2.22
2022-09-12T06:53:02.201Z,2.53
2022-09-12T06:56:10.302Z,2.30
2022-09-12T06:59:11.869Z,2.65
2022-09-12T07:02:13.356Z,2.47
2022-09-12T07:05:15.135Z,2.08
2022-09-12T07:08:16.640Z,2.55
2022-09-12T07:11:23.715Z,2.30
2022-09-12T07:14:26.031Z,2.47
2022-09-12T07:17:27.603Z,2.00
2022-09-12T07:20:29.662Z,2.38
2022-09-12T07:23:31.560Z,2.75
2022-09-12T07:26:33.035Z,2.45
2022-09-12T07:29:37.488Z,2.40
2022-09-12T07:32:39.449Z,2.50
2022-09-12T07:35:40.910Z,2.40
2022-09-12T07:38:43.626Z,2.10
2022-09-12T07:41:45.291Z,2.30
2022-09-12T07:44:46.921Z,2.10
2022-09-12T07:47:48.389Z,2.17
2022-09-12T07:50:58.836Z,2.00
2022-09-12T07:54:00.356Z,2.10
2022-09-12T07:57:01.941Z,2.22
2022-09-12T08:00:05.612Z,1.90
2022-09-12T08:06:20.806Z,2.00
2022-09-12T08:09:22.271Z,2.08
2022-09-12T08:12:23.759Z,1.92
2022-09-12T08:15:25.297Z,2.05
2022-09-12T08:18:28.161Z,2.00
2022-09-12T08:21:31.452Z,2.08
2022-09-12T08:24:33.532Z,2.00
2022-09-12T08:27:35.033Z,1.85
2022-09-12T08:30:36.556Z,1.90
2022-09-12T08:33:38.625Z,2.03
2022-09-12T08:36:40.979Z,2.08
2022-09-12T08:39:42.479Z,1.90
2022-09-12T08:42:48.957Z,1.95
2022-09-12T08:46:02.311Z,1.90
2022-09-12T08:49:09.093Z,1.60
2022-09-12T08:52:17.751Z,1.75
2022-09-12T08:55:33.537Z,1.67
2022-09-12T08:58:40.059Z,1.90
2022-09-12T09:01:45.271Z,1.70
